aviador You're here:

YPLM Decoded Metar

LEARMONTH in AUSTRALIA
Report Time2018-06-18 18:45:00
UTC Time2018-06-18 19:10:18
Flight Rules vfr VFR
Wind060° at 19 kt
W.Decomp.*RWY 36: 9.8 kt HW 16.3 kt RCW
W.Rank060° ranks 23
Current wind is above 060° avg. (7.9)
Visibility9999 m
Phenomena:Light Drizzle
Clouds:Broken 077 Hf
Overcast 091 Hf
Expected CloudBase > 1,200 ft AGL from Temp-Dew spread
Ceiling7,700 ft
Temp19°C (ISA +4)
Dew Point16°C (83% RH)
AAT14.2°C
QNH1018 hPa
Density Alt568 ft
Elevation20 ft
Report Wrong Elevation
Raw Report
YPLM 181845Z AUTO 06019KT 9999 -DZ BKN077 OVC091 19/16 Q1018 RERA=

Extra information for YPLM:More info

Metar Taf Metar & Taf Last 4 Metars F.Rules Stats Wind Profile Meteogram Temp Stats Airport Information Weather charts Add Link Nearby VenuesMetar ALERT Operation Metar Decoded Social comments